Time;durP1;ratioP1;P1;durP2;ratioP2;P2;SDS_P1;SDS_P2;PMS_P1;PMS_P2;Temp;Humidity;BMP_temperature;BMP_pressure;BME280_temperature;BME280_humidity;BME280_pressure;Samples;Min_cycle;Max_cycle;Signal;HPM_P1;HPM_P2
2021/06/24 00:01:02;;;;;;;0.10;0.10;;;14.50;70.30;;;;;;5033120;28;20041;-63
2021/06/24 00:03:31;;;;;;;0.03;0.03;;;14.50;70.30;;;;;;5015088;28;20131;-63
2021/06/24 00:05:58;;;;;;;0.10;0.10;;;14.50;70.20;;;;;;5033246;28;20053;-63
2021/06/24 00:08:25;;;;;;;0.10;0.10;;;14.40;70.10;;;;;;5027503;28;20438;-63
2021/06/24 00:10:53;;;;;;;0.03;0.03;;;14.40;70.00;;;;;;5018788;28;20060;-62
2021/06/24 00:13:21;;;;;;;0.10;0.00;;;14.40;70.00;;;;;;5031486;28;20552;-62
2021/06/24 00:15:47;;;;;;;0.00;0.00;;;14.40;70.10;;;;;;5032996;28;20057;-62
2021/06/24 00:18:14;;;;;;;0.10;0.10;;;14.40;70.20;;;;;;5030396;28;20077;-62
2021/06/24 00:20:42;;;;;;;0.10;0.10;;;14.40;70.20;;;;;;5032127;28;20049;-63
2021/06/24 00:23:09;;;;;;;0.10;0.10;;;14.30;70.10;;;;;;5032653;28;20191;-62
2021/06/24 00:25:35;;;;;;;0.05;0.05;;;14.30;70.20;;;;;;5017898;28;20128;-62
2021/06/24 00:28:02;;;;;;;0.10;0.10;;;14.30;70.30;;;;;;5033031;28;20041;-63
2021/06/24 00:30:29;;;;;;;0.00;0.00;;;14.30;70.20;;;;;;5032213;28;20193;-63
2021/06/24 00:32:55;;;;;;;0.00;0.00;;;14.20;70.30;;;;;;5032494;28;20497;-63
2021/06/24 00:35:21;;;;;;;0.10;0.10;;;14.20;70.40;;;;;;5022070;28;20045;-63
2021/06/24 00:37:48;;;;;;;0.00;0.00;;;14.20;70.60;;;;;;5032352;28;20128;-62
2021/06/24 00:40:15;;;;;;;0.10;0.10;;;14.20;70.60;;;;;;5032559;28;20057;-62
2021/06/24 00:42:43;;;;;;;0.10;0.10;;;14.20;70.70;;;;;;5031646;28;20121;-62
2021/06/24 00:45:12;;;;;;;0.10;0.10;;;14.10;70.70;;;;;;5032525;28;20136;-62
2021/06/24 00:47:40;;;;;;;0.00;0.00;;;14.10;70.90;;;;;;5024940;28;20103;-62
2021/06/24 00:50:08;;;;;;;0.10;0.10;;;14.00;72.00;;;;;;5032640;28;20053;-62
2021/06/24 00:52:35;;;;;;;0.10;0.10;;;14.10;71.30;;;;;;5031493;28;20046;-63
2021/06/24 00:55:02;;;;;;;0.10;0.10;;;14.00;71.30;;;;;;5031472;28;20072;-62
2021/06/24 00:57:30;;;;;;;0.10;0.10;;;14.00;71.40;;;;;;5014264;28;20173;-62
2021/06/24 00:59:56;;;;;;;0.20;0.20;;;13.90;71.40;;;;;;5032451;28;20192;-62
2021/06/24 01:02:23;;;;;;;0.10;0.10;;;13.90;71.50;;;;;;5032146;28;20128;-63
2021/06/24 01:04:51;;;;;;;0.10;0.10;;;13.90;71.60;;;;;;5032140;28;20049;-62
2021/06/24 01:07:19;;;;;;;0.05;0.05;;;13.90;71.60;;;;;;5032251;28;20093;-63
2021/06/24 01:09:47;;;;;;;0.20;0.20;;;13.80;71.70;;;;;;5031922;28;20041;-63
2021/06/24 01:12:14;;;;;;;0.10;0.10;;;13.80;71.70;;;;;;5024158;28;20060;-62
2021/06/24 01:14:42;;;;;;;0.10;0.10;;;13.70;71.80;;;;;;5032063;28;20060;-62
2021/06/24 01:17:08;;;;;;;0.20;0.10;;;13.70;71.90;;;;;;5020019;28;20520;-62
2021/06/24 01:19:34;;;;;;;0.10;0.10;;;13.70;71.90;;;;;;5022129;28;20057;-62
2021/06/24 01:22:01;;;;;;;0.00;0.00;;;13.70;71.80;;;;;;5031954;28;20049;-63
2021/06/24 01:24:28;;;;;;;0.10;0.10;;;13.70;71.80;;;;;;5031239;28;20053;-63
2021/06/24 01:26:55;;;;;;;0.08;0.08;;;13.70;71.90;;;;;;5027264;28;20049;-62
2021/06/24 01:29:21;;;;;;;0.10;0.10;;;13.70;71.90;;;;;;5031804;28;20046;-62
2021/06/24 01:31:48;;;;;;;0.05;0.05;;;13.70;71.90;;;;;;5031649;28;20127;-62
2021/06/24 01:34:14;;;;;;;0.15;0.15;;;13.60;71.90;;;;;;5031801;28;20060;-62
2021/06/24 01:36:40;;;;;;;0.10;0.10;;;13.60;71.90;;;;;;5031859;28;20382;-62
2021/06/24 01:39:10;;;;;;;0.10;0.10;;;13.60;72.00;;;;;;5031779;28;20104;-62
2021/06/24 01:41:37;;;;;;;0.20;0.10;;;13.50;72.10;;;;;;5031914;28;20060;-62
2021/06/24 01:44:04;;;;;;;0.10;0.10;;;13.50;72.10;;;;;;5032039;28;20045;-62
2021/06/24 01:46:31;;;;;;;0.10;0.10;;;13.50;72.20;;;;;;5030530;28;20456;-62
2021/06/24 01:48:58;;;;;;;0.10;0.10;;;13.50;72.20;;;;;;5030281;28;20049;-62
2021/06/24 01:51:24;;;;;;;0.08;0.08;;;13.50;72.10;;;;;;5035557;28;20636;-69
2021/06/24 01:53:51;;;;;;;0.00;0.00;;;13.50;72.10;;;;;;5035780;28;20057;-62
2021/06/24 01:56:17;;;;;;;0.08;0.08;;;13.50;72.10;;;;;;5035182;28;20386;-63
2021/06/24 01:58:44;;;;;;;0.00;0.00;;;13.50;72.10;;;;;;5035793;28;20120;-62
2021/06/24 02:01:10;;;;;;;0.10;0.10;;;13.50;72.00;;;;;;5035256;28;20042;-62
2021/06/24 02:03:40;;;;;;;0.00;0.00;;;13.50;72.00;;;;;;5035510;28;20559;-62
2021/06/24 02:06:06;;;;;;;0.10;0.10;;;13.50;72.00;;;;;;5035229;28;20056;-62
2021/06/24 02:08:37;;;;;;;0.10;0.10;;;13.50;72.00;;;;;;5035346;28;20069;-63
2021/06/24 02:11:04;;;;;;;0.08;0.08;;;13.50;72.00;;;;;;5027257;28;20054;-62
2021/06/24 02:13:31;;;;;;;0.05;0.05;;;13.50;72.00;;;;;;5034978;28;20046;-62
2021/06/24 02:15:57;;;;;;;0.10;0.10;;;13.50;72.10;;;;;;5035482;28;20052;-62
2021/06/24 02:18:24;;;;;;;0.10;0.10;;;13.60;72.10;;;;;;5029994;28;20485;-62
2021/06/24 02:20:50;;;;;;;0.10;0.10;;;13.50;72.00;;;;;;5034166;28;20124;-62
2021/06/24 02:23:17;;;;;;;0.10;0.10;;;13.50;72.00;;;;;;5034996;28;20195;-62
2021/06/24 02:25:43;;;;;;;0.10;0.10;;;13.50;72.00;;;;;;5031144;28;20133;-63
2021/06/24 02:28:09;;;;;;;0.10;0.10;;;13.50;72.10;;;;;;5026776;28;20128;-62
2021/06/24 02:30:36;;;;;;;0.10;0.10;;;13.40;72.10;;;;;;5022616;28;20127;-62
2021/06/24 02:33:05;;;;;;;0.10;0.10;;;13.40;72.20;;;;;;5018131;28;20060;-62
2021/06/24 02:35:35;;;;;;;0.10;0.10;;;13.30;72.30;;;;;;5015104;28;20046;-62
2021/06/24 02:38:02;;;;;;;0.20;0.20;;;13.30;72.50;;;;;;5014671;28;20048;-62
2021/06/24 02:40:29;;;;;;;0.10;0.10;;;13.30;72.70;;;;;;5017108;28;20093;-62
2021/06/24 02:42:55;;;;;;;0.10;0.10;;;13.20;72.70;;;;;;5001623;28;20184;-62
2021/06/24 02:45:22;;;;;;;0.10;0.10;;;13.20;72.70;;;;;;5014838;28;20046;-62
2021/06/24 02:47:48;;;;;;;0.10;0.10;;;13.20;72.60;;;;;;5013726;28;20086;-63
2021/06/24 02:50:14;;;;;;;0.08;0.08;;;13.30;72.50;;;;;;5015062;28;20049;-62
2021/06/24 02:52:41;;;;;;;0.22;0.20;;;13.40;72.40;;;;;;5014718;28;20559;-62
2021/06/24 02:55:08;;;;;;;0.03;0.03;;;13.30;72.30;;;;;;5015066;28;20132;-62
2021/06/24 02:57:34;;;;;;;0.10;0.10;;;13.30;72.20;;;;;;5013482;28;20046;-62
2021/06/24 03:00:03;;;;;;;0.10;0.10;;;13.40;72.30;;;;;;5014537;28;20088;-62
2021/06/24 03:02:29;;;;;;;0.10;0.10;;;13.30;72.10;;;;;;5013931;28;20053;-62
2021/06/24 03:04:56;;;;;;;0.38;0.25;;;13.30;72.10;;;;;;5014515;28;20042;-62
2021/06/24 03:07:22;;;;;;;0.10;0.10;;;13.30;72.10;;;;;;5014834;28;20180;-62
2021/06/24 03:09:48;;;;;;;0.10;0.10;;;13.30;71.90;;;;;;5013963;28;20523;-62
2021/06/24 03:12:14;;;;;;;0.05;0.05;;;13.30;71.90;;;;;;5014637;28;20200;-62
2021/06/24 03:14:41;;;;;;;0.03;0.03;;;13.20;71.80;;;;;;5014289;28;20094;-62
2021/06/24 03:17:07;;;;;;;0.13;0.13;;;13.20;71.90;;;;;;5014136;28;20086;-62
2021/06/24 03:19:33;;;;;;;0.20;0.20;;;13.20;72.00;;;;;;5014271;28;20050;-62
2021/06/24 03:21:59;;;;;;;0.10;0.10;;;13.20;72.00;;;;;;5013776;28;20050;-62
2021/06/24 03:24:26;;;;;;;0.00;0.00;;;13.10;72.00;;;;;;5013612;28;20524;-62
2021/06/24 03:26:52;;;;;;;0.10;0.10;;;13.10;72.20;;;;;;5013776;28;20470;-62
2021/06/24 03:29:18;;;;;;;0.10;0.10;;;13.10;72.20;;;;;;5014144;28;20136;-62
2021/06/24 03:31:45;;;;;;;0.00;0.00;;;13.00;72.20;;;;;;5013448;28;20057;-62
2021/06/24 03:34:12;;;;;;;0.13;0.13;;;13.00;72.20;;;;;;5014067;28;20056;-62
2021/06/24 03:36:38;;;;;;;0.10;0.10;;;13.00;72.20;;;;;;5013435;28;22018;-62
2021/06/24 03:39:04;;;;;;;0.10;0.10;;;13.00;72.10;;;;;;5013757;28;20045;-63
2021/06/24 03:41:31;;;;;;;0.20;0.20;;;13.00;72.10;;;;;;5013371;28;20048;-62
2021/06/24 03:43:57;;;;;;;0.00;0.00;;;13.00;72.20;;;;;;5013986;28;20050;-62
2021/06/24 03:46:24;;;;;;;0.10;0.10;;;12.90;72.10;;;;;;5013294;28;20176;-62
2021/06/24 03:48:52;;;;;;;0.10;0.10;;;13.00;72.20;;;;;;5012802;28;20402;-62
2021/06/24 03:51:19;;;;;;;0.17;0.10;;;12.90;72.10;;;;;;5014048;28;20080;-63
2021/06/24 03:53:46;;;;;;;0.03;0.03;;;12.90;72.00;;;;;;5013667;28;20092;-62
2021/06/24 03:56:12;;;;;;;0.20;0.20;;;12.90;72.10;;;;;;5013683;28;20184;-62
2021/06/24 03:58:39;;;;;;;0.10;0.10;;;12.90;72.10;;;;;;5013720;28;20243;-70
2021/06/24 04:01:05;;;;;;;0.20;0.20;;;12.80;72.00;;;;;;5012987;28;20140;-61
2021/06/24 04:03:32;;;;;;;0.10;0.10;;;12.90;72.10;;;;;;5013474;28;20056;-62
2021/06/24 04:05:58;;;;;;;0.03;0.03;;;12.80;72.00;;;;;;5013572;28;20085;-62
2021/06/24 04:08:24;;;;;;;0.10;0.10;;;12.80;72.10;;;;;;5013684;28;20069;-62
2021/06/24 04:10:51;;;;;;;0.10;0.10;;;12.80;72.20;;;;;;5012790;28;20049;-62
2021/06/24 04:13:17;;;;;;;0.15;0.15;;;12.80;72.30;;;;;;5013740;28;20054;-62
2021/06/24 04:15:43;;;;;;;0.00;0.00;;;12.80;72.30;;;;;;5013147;28;20049;-62
2021/06/24 04:18:10;;;;;;;0.05;0.05;;;12.80;72.20;;;;;;5013076;28;20185;-62
2021/06/24 04:20:36;;;;;;;0.10;0.10;;;12.80;72.30;;;;;;5012884;28;20661;-63
2021/06/24 04:23:04;;;;;;;0.10;0.10;;;12.80;72.20;;;;;;5012759;28;20187;-62
2021/06/24 04:25:30;;;;;;;0.10;0.10;;;12.80;72.30;;;;;;5013026;28;20135;-62
2021/06/24 04:27:59;;;;;;;0.10;0.10;;;12.80;72.20;;;;;;5012085;28;20056;-62
2021/06/24 04:30:27;;;;;;;0.08;0.08;;;12.80;72.20;;;;;;5013149;28;20050;-62
2021/06/24 04:32:55;;;;;;;0.13;0.10;;;12.80;72.20;;;;;;5012954;28;20054;-62
2021/06/24 04:35:21;;;;;;;0.00;0.00;;;12.80;72.20;;;;;;5013056;28;20046;-62
2021/06/24 04:37:48;;;;;;;0.10;0.10;;;12.80;72.20;;;;;;5012769;28;20081;-62
2021/06/24 04:40:14;;;;;;;0.00;0.00;;;12.80;72.30;;;;;;5012841;28;20133;-62
2021/06/24 04:42:41;;;;;;;0.17;0.10;;;12.80;72.30;;;;;;5012750;28;20156;-62
2021/06/24 04:45:08;;;;;;;0.10;0.10;;;12.80;72.40;;;;;;5012934;28;20080;-62
2021/06/24 04:47:35;;;;;;;0.15;0.15;;;12.80;72.40;;;;;;5012962;28;20168;-62
2021/06/24 04:50:01;;;;;;;0.10;0.10;;;12.80;72.50;;;;;;5012881;28;20049;-62
2021/06/24 04:52:27;;;;;;;0.10;0.10;;;12.80;72.50;;;;;;5012631;28;20061;-62
2021/06/24 04:54:54;;;;;;;0.10;0.10;;;12.80;72.50;;;;;;5012683;28;20042;-62
2021/06/24 04:57:20;;;;;;;0.03;0.03;;;12.90;72.50;;;;;;5012485;28;20052;-62
2021/06/24 04:59:46;;;;;;;0.00;0.00;;;12.90;72.50;;;;;;5007237;28;20132;-62
2021/06/24 05:02:13;;;;;;;0.08;0.08;;;12.90;72.40;;;;;;5007847;28;20125;-63
2021/06/24 05:04:39;;;;;;;0.10;0.10;;;12.90;72.50;;;;;;5008104;28;20100;-62
2021/06/24 05:07:09;;;;;;;0.10;0.10;;;13.00;72.50;;;;;;4995503;28;20053;-62
2021/06/24 05:09:39;;;;;;;0.10;0.10;;;13.00;72.50;;;;;;4997236;28;20120;-62
2021/06/24 05:12:10;;;;;;;0.08;0.08;;;13.00;72.60;;;;;;4997755;28;20573;-62
2021/06/24 05:14:37;;;;;;;0.20;0.20;;;13.10;72.80;;;;;;4994013;28;20189;-62
2021/06/24 05:17:05;;;;;;;0.10;0.10;;;13.10;72.80;;;;;;4993411;28;20129;-62
2021/06/24 05:19:34;;;;;;;0.20;0.20;;;13.20;72.90;;;;;;5002660;28;20058;-62
2021/06/24 05:22:01;;;;;;;0.10;0.10;;;13.20;72.70;;;;;;5030794;28;20371;-62
2021/06/24 05:24:27;;;;;;;0.05;0.05;;;13.30;72.50;;;;;;5028811;28;20125;-62
2021/06/24 05:26:54;;;;;;;0.10;0.10;;;13.30;72.40;;;;;;5019611;28;20038;-62
2021/06/24 05:29:20;;;;;;;0.20;0.20;;;13.40;72.30;;;;;;5017844;28;20507;-62
2021/06/24 05:31:46;;;;;;;0.20;0.20;;;13.40;72.20;;;;;;5019726;28;20041;-62
2021/06/24 05:34:13;;;;;;;0.10;0.10;;;13.50;72.20;;;;;;5016306;28;20176;-62
2021/06/24 05:36:39;;;;;;;0.10;0.10;;;13.50;72.20;;;;;;5006541;28;20053;-62
2021/06/24 05:39:06;;;;;;;0.00;0.00;;;13.50;72.20;;;;;;5018004;28;20048;-62
2021/06/24 05:41:32;;;;;;;0.20;0.10;;;13.60;72.20;;;;;;5017512;28;20053;-62
2021/06/24 05:43:58;;;;;;;0.00;0.00;;;13.60;72.10;;;;;;5016904;28;20195;-62
2021/06/24 05:46:26;;;;;;;0.13;0.13;;;13.60;72.00;;;;;;5022376;28;20046;-62
2021/06/24 05:48:52;;;;;;;0.13;0.13;;;13.80;72.10;;;;;;5005160;28;20109;-62
2021/06/24 05:51:19;;;;;;;0.10;0.10;;;13.90;72.00;;;;;;5024558;28;20128;-63
2021/06/24 05:53:45;;;;;;;0.00;0.00;;;14.00;72.00;;;;;;5024141;28;20092;-63
2021/06/24 05:56:11;;;;;;;0.10;0.10;;;14.00;71.80;;;;;;5025774;28;20053;-63
2021/06/24 05:58:38;;;;;;;0.10;0.10;;;14.10;71.70;;;;;;5014705;28;20042;-63
2021/06/24 06:01:04;;;;;;;0.00;0.00;;;14.20;71.70;;;;;;5003755;28;20050;-64
2021/06/24 06:03:30;;;;;;;0.13;0.13;;;14.30;71.60;;;;;;5013177;28;20073;-68
2021/06/24 06:05:57;;;;;;;0.13;0.13;;;14.30;71.20;;;;;;5017607;28;20038;-69
2021/06/24 06:08:23;;;;;;;0.10;0.10;;;14.30;71.20;;;;;;5021645;28;20132;-69
2021/06/24 06:10:50;;;;;;;0.10;0.10;;;14.40;71.20;;;;;;5020926;28;20243;-62
2021/06/24 06:13:16;;;;;;;0.20;0.20;;;14.40;71.10;;;;;;5015262;28;20065;-62
2021/06/24 06:15:47;;;;;;;0.15;0.15;;;14.40;71.20;;;;;;5022381;28;20050;-62
2021/06/24 06:18:20;;;;;;;;;;;14.40;71.00;;;;;;5019949;28;20056;-63
2021/06/24 06:20:48;;;;;;;0.13;0.13;;;14.40;70.90;;;;;;5025069;28;20003;-62
2021/06/24 06:23:17;;;;;;;0.10;0.10;;;14.40;70.70;;;;;;5025976;28;20497;-63
2021/06/24 06:25:46;;;;;;;0.10;0.10;;;14.50;71.00;;;;;;5024459;28;20046;-63
2021/06/24 06:28:15;;;;;;;0.00;0.00;;;14.60;70.70;;;;;;5007491;28;20431;-65
2021/06/24 06:30:42;;;;;;;0.10;0.10;;;14.70;70.40;;;;;;5012987;28;20536;-63
2021/06/24 06:33:09;;;;;;;0.10;0.10;;;14.80;70.40;;;;;;5020404;28;20139;-63
2021/06/24 06:35:36;;;;;;;0.10;0.10;;;14.80;70.40;;;;;;5017372;28;20050;-62
2021/06/24 06:38:02;;;;;;;0.00;0.00;;;14.90;70.70;;;;;;5018857;28;20045;-64
2021/06/24 06:40:29;;;;;;;0.10;0.10;;;15.00;71.10;;;;;;5010596;28;20041;-63
2021/06/24 06:42:55;;;;;;;0.10;0.10;;;15.10;71.40;;;;;;5011555;28;20088;-63
2021/06/24 06:45:24;;;;;;;0.13;0.13;;;15.10;71.70;;;;;;5011761;28;20045;-62
2021/06/24 06:47:50;;;;;;;0.20;0.20;;;15.20;72.10;;;;;;5010296;28;20104;-61
2021/06/24 06:50:17;;;;;;;0.10;0.10;;;15.30;72.40;;;;;;5012449;28;20196;-61
2021/06/24 06:52:43;;;;;;;0.10;0.10;;;15.40;72.50;;;;;;5019392;28;20045;-60
2021/06/24 06:55:10;;;;;;;0.15;0.15;;;15.50;72.80;;;;;;5018901;28;20559;-60
2021/06/24 06:57:37;;;;;;;0.10;0.10;;;15.60;72.90;;;;;;5018466;28;20192;-60
2021/06/24 07:00:05;;;;;;;0.10;0.10;;;15.60;73.00;;;;;;5020262;28;20711;-60
2021/06/24 07:02:31;;;;;;;0.10;0.10;;;15.70;73.30;;;;;;5019006;28;20050;-61
2021/06/24 07:04:58;;;;;;;0.10;0.10;;;15.70;73.50;;;;;;5015008;28;20124;-61
2021/06/24 07:07:24;;;;;;;0.10;0.10;;;15.80;73.60;;;;;;5016728;28;20449;-61
2021/06/24 07:09:52;;;;;;;0.10;0.10;;;15.80;73.70;;;;;;5016879;28;20502;-60
2021/06/24 07:12:19;;;;;;;0.22;0.22;;;15.80;73.70;;;;;;5020740;28;20132;-61
2021/06/24 07:14:47;;;;;;;0.10;0.10;;;15.80;73.90;;;;;;5025622;28;20049;-60
2021/06/24 07:17:13;;;;;;;0.10;0.10;;;15.90;74.00;;;;;;5023370;28;20100;-60
2021/06/24 07:19:39;;;;;;;0.10;0.10;;;15.80;74.20;;;;;;5016958;28;20056;-61
2021/06/24 07:22:06;;;;;;;0.10;0.10;;;15.80;74.30;;;;;;5014260;28;20176;-61
2021/06/24 07:24:33;;;;;;;0.03;0.03;;;15.80;74.30;;;;;;5013798;28;20057;-61
2021/06/24 07:26:59;;;;;;;0.10;0.10;;;15.80;74.60;;;;;;5014190;28;20131;-65
2021/06/24 07:29:25;;;;;;;0.10;0.10;;;15.80;74.70;;;;;;5013801;28;20052;-63
2021/06/24 07:31:52;;;;;;;0.10;0.10;;;15.80;75.30;;;;;;5015605;28;20402;-62
2021/06/24 07:34:18;;;;;;;0.10;0.10;;;15.80;75.20;;;;;;5015470;28;20050;-61
2021/06/24 07:36:45;;;;;;;0.13;0.13;;;15.80;75.30;;;;;;5002098;28;20179;-62
2021/06/24 07:39:13;;;;;;;0.17;0.17;;;15.80;75.90;;;;;;5014270;28;20096;-63
2021/06/24 07:41:40;;;;;;;0.10;0.10;;;15.80;75.90;;;;;;5014184;28;20046;-62
2021/06/24 07:44:07;;;;;;;0.10;0.10;;;15.80;76.00;;;;;;5002602;28;20502;-62
2021/06/24 07:46:33;;;;;;;0.15;0.15;;;16.00;75.90;;;;;;5025552;28;20046;-62
2021/06/24 07:49:00;;;;;;;0.03;0.03;;;16.00;75.60;;;;;;5023633;28;20049;-62
2021/06/24 07:51:26;;;;;;;0.10;0.10;;;16.20;75.50;;;;;;5006792;28;20414;-62
2021/06/24 07:53:52;;;;;;;0.10;0.10;;;16.40;75.30;;;;;;5009177;28;20103;-62
2021/06/24 07:56:19;;;;;;;0.00;0.00;;;16.50;74.70;;;;;;5006678;28;20060;-62
2021/06/24 07:58:46;;;;;;;0.00;0.00;;;16.60;74.40;;;;;;5011168;28;20117;-62
2021/06/24 08:01:12;;;;;;;0.10;0.10;;;16.80;74.10;;;;;;5005635;28;20053;-62
2021/06/24 08:03:39;;;;;;;0.10;0.10;;;16.90;73.90;;;;;;5012653;28;20494;-62
2021/06/24 08:06:05;;;;;;;0.10;0.10;;;17.10;73.20;;;;;;5021119;28;20094;-62
2021/06/24 08:08:32;;;;;;;0.00;0.00;;;17.20;72.70;;;;;;5014431;28;20057;-62
2021/06/24 08:10:59;;;;;;;0.00;0.00;;;17.30;72.20;;;;;;5018311;28;20587;-62
2021/06/24 08:13:27;;;;;;;0.00;0.00;;;17.40;72.00;;;;;;5018857;28;20057;-62
2021/06/24 08:15:55;;;;;;;0.00;0.00;;;17.50;71.70;;;;;;5017815;28;20103;-62
2021/06/24 08:18:22;;;;;;;0.00;0.00;;;17.60;71.50;;;;;;5012870;28;20054;-62
2021/06/24 08:20:49;;;;;;;0.00;0.00;;;17.60;70.50;;;;;;5024619;28;20150;-62
2021/06/24 08:23:17;;;;;;;0.10;0.10;;;17.70;70.40;;;;;;4997989;28;20099;-62
2021/06/24 08:25:44;;;;;;;0.10;0.10;;;17.70;70.00;;;;;;4995043;28;20402;-62
2021/06/24 08:28:11;;;;;;;0.00;0.00;;;17.80;70.00;;;;;;5018709;28;20684;-62
2021/06/24 08:30:42;;;;;;;0.00;0.00;;;17.80;69.80;;;;;;5023964;28;20136;-62
2021/06/24 08:33:08;;;;;;;;;;;17.90;69.70;;;;;;5021089;28;20064;-62
2021/06/24 08:35:34;;;;;;;0.00;0.00;;;17.90;69.40;;;;;;5018241;28;19966;-62
2021/06/24 08:38:01;;;;;;;0.00;0.00;;;17.90;69.00;;;;;;5016953;28;20124;-62
2021/06/24 08:40:27;;;;;;;0.00;0.00;;;18.00;68.20;;;;;;5020714;28;20188;-62
2021/06/24 08:42:54;;;;;;;0.00;0.00;;;18.00;68.20;;;;;;5012238;28;20096;-62
2021/06/24 08:45:21;;;;;;;0.00;0.00;;;18.10;68.10;;;;;;5011988;28;20050;-62
2021/06/24 08:47:50;;;;;;;0.00;0.00;;;18.10;66.60;;;;;;5011689;28;20099;-62
2021/06/24 08:50:17;;;;;;;0.00;0.00;;;18.10;66.50;;;;;;5008850;28;20096;-62
2021/06/24 08:52:48;;;;;;;0.10;0.10;;;18.30;67.10;;;;;;5012751;28;20402;-62
2021/06/24 08:55:19;;;;;;;0.00;0.00;;;18.60;67.10;;;;;;5005280;28;20065;-62
2021/06/24 08:57:46;;;;;;;0.00;0.00;;;18.90;66.40;;;;;;5012445;28;20107;-63
2021/06/24 09:00:12;;;;;;;0.00;0.00;;;19.10;65.60;;;;;;4993335;28;20050;-63
2021/06/24 09:02:44;;;;;;;0.00;0.00;;;19.40;64.70;;;;;;4994047;28;20049;-63
2021/06/24 09:05:11;;;;;;;0.10;0.10;;;19.60;64.20;;;;;;4997243;28;20112;-66
2021/06/24 09:07:49;;;;;;;0.00;0.00;;;19.80;63.70;;;;;;4999408;28;20105;-63
2021/06/24 09:10:16;;;;;;;0.00;0.00;;;20.10;62.60;;;;;;5013177;28;20131;-62
2021/06/24 09:12:57;;;;;;;0.00;0.00;;;20.30;61.90;;;;;;5003604;28;20053;-62
2021/06/24 09:15:24;;;;;;;0.08;0.08;;;20.60;61.60;;;;;;5000617;28;20140;-63
2021/06/24 09:17:51;;;;;;;0.00;0.00;;;20.80;60.80;;;;;;5013544;28;20618;-64
2021/06/24 09:20:24;;;;;;;0.00;0.00;;;21.00;60.20;;;;;;5006452;28;20419;-62
2021/06/24 09:23:26;;;;;;;0.10;0.10;;;21.10;59.50;;;;;;5023908;28;20042;-62
2021/06/24 09:26:07;;;;;;;0.00;0.00;;;21.30;59.20;;;;;;4987820;28;20054;-62
2021/06/24 09:28:42;;;;;;;0.00;0.00;;;21.40;58.80;;;;;;4967460;28;20062;-63
2021/06/24 09:31:30;;;;;;;0.10;0.10;;;21.60;57.40;;;;;;4959224;28;20050;-63
2021/06/24 09:34:05;;;;;;;0.05;0.05;;;21.60;57.20;;;;;;4969709;28;20085;-62
2021/06/24 09:36:39;;;;;;;0.10;0.10;;;21.60;57.40;;;;;;4975319;28;20105;-62
2021/06/24 09:39:08;;;;;;;0.00;0.00;;;21.70;57.60;;;;;;4981612;28;20529;-63
2021/06/24 09:41:35;;;;;;;0.00;0.00;;;21.90;56.00;;;;;;4975829;28;20503;-62
2021/06/24 09:44:20;;;;;;;0.10;0.10;;;22.00;55.40;;;;;;4976744;28;20050;-62
2021/06/24 09:46:47;;;;;;;0.10;0.10;;;22.10;54.70;;;;;;4982728;28;20089;-62
2021/06/24 09:49:27;;;;;;;0.00;0.00;;;22.20;54.30;;;;;;4981480;28;20046;-62
2021/06/24 09:51:54;;;;;;;;;;;22.30;53.70;;;;;;4977193;28;20866;-62
2021/06/24 09:54:31;;;;;;;0.10;0.00;;;22.40;53.40;;;;;;4978201;28;19929;-63
2021/06/24 09:56:58;;;;;;;0.00;0.00;;;22.40;53.60;;;;;;4972037;28;20159;-62
2021/06/24 09:59:42;;;;;;;0.00;0.00;;;22.50;52.90;;;;;;4979736;28;20177;-62
2021/06/24 10:02:13;;;;;;;0.00;0.00;;;22.50;52.70;;;;;;4999662;28;20173;-63
2021/06/24 10:04:44;;;;;;;0.03;0.03;;;22.40;52.80;;;;;;5008521;28;20046;-63
2021/06/24 10:07:13;;;;;;;0.10;0.10;;;22.40;53.10;;;;;;4994901;28;20046;-62
2021/06/24 10:09:45;;;;;;;0.00;0.00;;;22.50;53.10;;;;;;5001320;28;20129;-63
2021/06/24 10:12:14;;;;;;;0.10;0.10;;;22.70;52.50;;;;;;5015032;28;20111;-64
2021/06/24 10:14:41;;;;;;;0.00;0.00;;;22.60;50.80;;;;;;5015381;28;20050;-64
2021/06/24 10:17:09;;;;;;;0.10;0.10;;;22.60;51.00;;;;;;5015001;28;20056;-63
2021/06/24 10:19:38;;;;;;;0.10;0.10;;;22.50;50.10;;;;;;5014831;28;20077;-63
2021/06/24 10:22:17;;;;;;;0.10;0.10;;;22.40;51.00;;;;;;5015123;28;20428;-64
2021/06/24 10:24:54;;;;;;;0.10;0.10;;;22.40;49.70;;;;;;5015011;28;20041;-64
2021/06/24 10:27:24;;;;;;;0.00;0.00;;;22.30;50.80;;;;;;5015067;28;20536;-64
2021/06/24 10:29:52;;;;;;;0.00;0.00;;;22.40;52.00;;;;;;5027135;28;20515;-64
2021/06/24 10:32:22;;;;;;;0.10;0.10;;;22.60;51.60;;;;;;5023336;28;20061;-64
2021/06/24 10:34:50;;;;;;;0.10;0.10;;;22.70;51.50;;;;;;5029117;28;20042;-64
2021/06/24 10:37:23;;;;;;;0.00;0.00;;;22.70;50.80;;;;;;5032255;28;20158;-64
2021/06/24 10:39:59;;;;;;;0.00;0.00;;;22.60;50.30;;;;;;5028394;28;20486;-64
2021/06/24 10:42:29;;;;;;;0.10;0.10;;;22.30;49.90;;;;;;5015353;28;20042;-63
2021/06/24 10:45:05;;;;;;;0.10;0.10;;;22.10;51.40;;;;;;5014347;28;20056;-64
2021/06/24 10:47:41;;;;;;;0.00;0.00;;;22.20;52.40;;;;;;5018563;28;20068;-64
2021/06/24 10:50:26;;;;;;;0.00;0.00;;;22.30;52.00;;;;;;5017476;28;20125;-64
2021/06/24 10:52:54;;;;;;;0.00;0.00;;;22.40;52.10;;;;;;5017950;28;20090;-64
2021/06/24 10:55:40;;;;;;;0.00;0.00;;;22.50;51.80;;;;;;5016494;28;20091;-64
2021/06/24 10:58:18;;;;;;;0.05;0.05;;;22.60;52.00;;;;;;5020332;28;20743;-64
2021/06/24 11:00:55;;;;;;;0.00;0.00;;;22.60;51.60;;;;;;5022163;28;20152;-64
2021/06/24 11:03:30;;;;;;;0.00;0.00;;;22.60;51.00;;;;;;5027463;28;20413;-64
2021/06/24 11:06:17;;;;;;;0.00;0.00;;;22.50;50.70;;;;;;5023312;28;20504;-64
2021/06/24 11:08:44;;;;;;;0.00;0.00;;;22.30;50.70;;;;;;5025032;28;20049;-64
2021/06/24 11:11:10;;;;;;;0.00;0.00;;;22.00;51.10;;;;;;5022952;28;20061;-64
2021/06/24 11:13:44;;;;;;;0.10;0.10;;;21.90;52.00;;;;;;5021296;28;20049;-63
2021/06/24 11:16:10;;;;;;;0.20;0.20;;;21.90;52.60;;;;;;5027276;28;20054;-64
2021/06/24 11:18:36;;;;;;;0.20;0.17;;;21.90;52.50;;;;;;5010340;28;20183;-64
2021/06/24 11:21:23;;;;;;;0.20;0.20;;;22.00;51.90;;;;;;5021752;28;20124;-61
2021/06/24 11:24:00;;;;;;;0.00;0.00;;;22.10;51.80;;;;;;5027607;28;20046;-61
2021/06/24 11:26:27;;;;;;;0.08;0.08;;;22.20;51.50;;;;;;5028152;28;20410;-61
2021/06/24 11:29:02;;;;;;;0.00;0.00;;;22.20;51.50;;;;;;5027669;28;20118;-62
2021/06/24 11:32:05;;;;;;;0.10;0.10;;;22.20;50.30;;;;;;5027939;28;20133;-62
2021/06/24 11:34:54;;;;;;;0.10;0.10;;;22.00;51.10;;;;;;5007699;28;20058;-62
2021/06/24 11:37:30;;;;;;;0.00;0.00;;;21.70;50.70;;;;;;5012376;28;20092;-61
2021/06/24 11:40:03;;;;;;;0.85;0.10;;;21.50;51.60;;;;;;5015859;28;20082;-61
2021/06/24 11:42:36;;;;;;;0.00;0.00;;;21.40;52.40;;;;;;5013776;28;20049;-62
2021/06/24 11:45:06;;;;;;;0.10;0.10;;;21.20;52.60;;;;;;5012468;28;20399;-61
2021/06/24 11:47:34;;;;;;;0.00;0.00;;;21.20;53.50;;;;;;5008818;28;20053;-65
2021/06/24 12:04:19;;;;;;;0.03;0.03;;;22.00;50.70;;;;;;5015736;28;20414;-62
2021/06/24 12:06:50;;;;;;;0.00;0.00;;;22.20;51.40;;;;;;5014942;28;20077;-62
2021/06/24 12:09:22;;;;;;;0.00;0.00;;;22.30;51.20;;;;;;5017350;28;20054;-62
2021/06/24 12:11:52;;;;;;;0.10;0.10;;;22.30;50.00;;;;;;5015282;28;20059;-63
2021/06/24 12:14:30;;;;;;;0.00;0.00;;;22.30;50.30;;;;;;5019651;28;20132;-62
2021/06/24 12:17:19;;;;;;;0.00;0.00;;;22.20;50.20;;;;;;5022963;28;20053;-63
2021/06/24 12:19:53;;;;;;;0.00;0.00;;;22.00;49.10;;;;;;5019116;28;20124;-64
2021/06/24 12:22:40;;;;;;;0.00;0.00;;;21.80;49.90;;;;;;5019637;28;20433;-62
2021/06/24 12:25:11;;;;;;;0.10;0.10;;;21.80;49.60;;;;;;5013645;28;20045;-62
2021/06/24 12:27:40;;;;;;;0.00;0.00;;;21.80;49.20;;;;;;5010481;28;20052;-62
2021/06/24 12:30:22;;;;;;;0.00;0.00;;;21.80;49.60;;;;;;5020575;28;20092;-63
2021/06/24 12:33:00;;;;;;;0.00;0.00;;;21.80;49.90;;;;;;5030614;28;20164;-62
2021/06/24 12:35:36;;;;;;;0.00;0.00;;;21.80;49.50;;;;;;5007246;28;20191;-63
2021/06/24 12:38:10;;;;;;;0.00;0.00;;;21.80;49.20;;;;;;5029997;28;20301;-62
2021/06/24 12:40:39;;;;;;;0.10;0.10;;;21.80;49.50;;;;;;5007807;28;20077;-62
2021/06/24 12:43:07;;;;;;;0.00;0.00;;;21.90;49.90;;;;;;5012266;28;20049;-62
2021/06/24 12:45:38;;;;;;;0.00;0.00;;;21.90;49.30;;;;;;5012642;28;20050;-62
2021/06/24 12:48:05;;;;;;;0.00;0.00;;;22.00;49.60;;;;;;5013925;28;20038;-63
2021/06/24 12:50:34;;;;;;;0.00;0.00;;;22.10;49.50;;;;;;5017374;28;20608;-62
2021/06/24 12:53:02;;;;;;;0.10;0.05;;;22.10;49.10;;;;;;5019315;28;20165;-62
2021/06/24 12:55:32;;;;;;;0.00;0.00;;;22.20;48.90;;;;;;5014730;28;20132;-63
2021/06/24 12:57:59;;;;;;;0.00;0.00;;;22.20;49.70;;;;;;5016623;28;20135;-62
2021/06/24 13:00:26;;;;;;;0.00;0.00;;;22.20;47.70;;;;;;5016782;28;20096;-63
2021/06/24 13:02:52;;;;;;;0.00;0.00;;;22.10;48.20;;;;;;5020746;28;20475;-62
2021/06/24 13:05:23;;;;;;;0.00;0.00;;;22.10;48.70;;;;;;5016932;28;20050;-63
2021/06/24 13:08:05;;;;;;;0.00;0.00;;;22.00;48.40;;;;;;5022495;28;20056;-62
2021/06/24 13:10:43;;;;;;;0.00;0.00;;;22.00;48.80;;;;;;5012125;28;20486;-63